createdAt,value
2018-06-07T00:23:44.787Z,1001.03
2018-06-07T01:38:38.933Z,1001.31
2018-06-07T01:39:11.881Z,1001.36
2018-06-07T01:40:11.861Z,1001.30
2018-06-07T01:41:12.035Z,1001.31
2018-06-07T01:42:11.923Z,1001.29
2018-06-07T01:43:11.833Z,1001.33
2018-06-07T01:44:14.592Z,1001.29
2018-06-07T01:45:13.312Z,1001.34
2018-06-07T01:46:11.866Z,1001.33
2018-06-07T01:47:11.796Z,1001.31
2018-06-07T01:48:11.793Z,1001.32
2018-06-07T01:49:12.371Z,1001.34
2018-06-07T01:50:11.781Z,1001.34
2018-06-07T01:51:11.813Z,1001.35
2018-06-07T01:52:12.436Z,1001.33
2018-06-07T01:53:12.165Z,1001.36
2018-06-07T01:54:11.762Z,1001.35
2018-06-07T01:55:13.418Z,1001.34
2018-06-07T01:56:13.334Z,1001.33
2018-06-07T01:57:11.749Z,1001.36
2018-06-07T01:58:11.801Z,1001.35
2018-06-07T01:59:11.759Z,1001.34
2018-06-07T02:00:11.720Z,1001.37
2018-06-07T02:01:11.744Z,1001.36
2018-06-07T02:02:11.726Z,1001.34
2018-06-07T02:03:11.697Z,1001.32
2018-06-07T02:04:11.725Z,1001.29
2018-06-07T02:05:12.398Z,1001.26
2018-06-07T02:06:16.466Z,1001.25
2018-06-07T02:07:22.338Z,1001.28
2018-06-07T02:08:11.654Z,1001.26
2018-06-07T02:09:11.685Z,1001.26
2018-06-07T02:10:12.368Z,1001.29
2018-06-07T02:11:12.566Z,1001.31
2018-06-07T02:12:11.635Z,1001.26
2018-06-07T02:13:11.660Z,1001.26
2018-06-07T03:30:50.597Z,1001.42
2018-06-07T03:31:28.352Z,1001.41
2018-06-07T03:32:23.579Z,1001.44
2018-06-07T03:33:23.595Z,1001.48
2018-06-07T03:34:23.813Z,1001.49
2018-06-07T03:35:23.707Z,1001.48
2018-06-07T03:36:23.570Z,1001.49
2018-06-07T03:37:23.822Z,1001.49
2018-06-07T03:38:23.529Z,1001.52
2018-06-07T03:39:23.521Z,1001.54
2018-06-07T03:40:23.512Z,1001.49
2018-06-07T03:41:23.510Z,1001.51
2018-06-07T03:42:23.665Z,1001.55
2018-06-07T03:43:23.533Z,1001.56
2018-06-07T03:44:23.540Z,1001.57
2018-06-07T03:45:23.507Z,1001.57
2018-06-07T03:46:23.517Z,1001.56
2018-06-07T03:47:23.457Z,1001.56
2018-06-07T03:48:23.774Z,1001.56
2018-06-07T03:49:23.512Z,1001.56
2018-06-07T03:50:23.616Z,1001.56
2018-06-07T03:51:23.440Z,1001.57
2018-06-07T03:52:23.462Z,1001.57
2018-06-07T03:53:23.428Z,1001.58
2018-06-07T03:54:25.466Z,1001.62
2018-06-07T03:55:23.473Z,1001.63
2018-06-07T03:56:23.536Z,1001.61
2018-06-07T03:57:23.422Z,1001.63
2018-06-07T03:58:23.399Z,1001.62
2018-06-07T03:59:23.391Z,1001.68
2018-06-07T04:00:23.399Z,1001.65
2018-06-07T04:01:23.424Z,1001.68
2018-06-07T04:02:23.412Z,1001.65
2018-06-07T04:03:23.409Z,1001.66
2018-06-07T08:13:27.830Z,1002.25
2018-06-07T08:14:27.158Z,1002.26
2018-06-07T08:15:27.225Z,1002.23
2018-06-07T08:16:27.146Z,1002.22
2018-06-07T08:17:27.150Z,1002.22
2018-06-07T08:18:38.181Z,1002.21
2018-06-07T08:19:27.153Z,1002.19
2018-06-07T08:20:27.126Z,1002.22
2018-06-07T08:24:29.434Z,1002.16
2018-06-07T08:25:31.324Z,1002.16
2018-06-07T08:26:29.377Z,1002.17
2018-06-07T08:27:29.379Z,1002.15
2018-06-07T08:28:29.391Z,1002.19
2018-06-07T08:29:29.812Z,1002.16
2018-06-07T08:30:29.366Z,1002.17
2018-06-07T08:31:29.363Z,1002.18
2018-06-07T08:32:29.358Z,1002.17
2018-06-07T08:33:29.347Z,1002.15
2018-06-07T08:34:29.354Z,1002.17
2018-06-07T08:35:29.380Z,1002.20
2018-06-07T08:36:29.356Z,1002.23
2018-06-07T08:37:29.338Z,1002.25
2018-06-07T08:38:29.353Z,1002.25
2018-06-07T08:42:03.517Z,1002.32
2018-06-07T08:43:03.486Z,1002.27
2018-06-07T08:44:03.484Z,1002.28
2018-06-07T08:45:03.619Z,1002.33
2018-06-07T08:46:03.451Z,1002.30
2018-06-07T08:47:03.461Z,1002.30
2018-06-07T08:48:03.458Z,1002.31
2018-06-07T08:49:03.447Z,1002.33
2018-06-07T08:50:03.451Z,1002.36
2018-06-07T08:51:03.511Z,1002.42
2018-06-07T08:52:03.460Z,1002.43
2018-06-07T08:53:03.453Z,1002.46
2018-06-07T08:54:03.457Z,1002.44
2018-06-07T08:55:03.450Z,1002.42
2018-06-07T08:56:03.505Z,1002.50
2018-06-07T08:57:03.521Z,1002.49
2018-06-07T08:58:03.461Z,1002.55
2018-06-07T08:59:03.469Z,1002.53
2018-06-07T09:00:03.462Z,1002.58
2018-06-07T09:01:03.486Z,1002.57
2018-06-07T09:02:03.497Z,1002.60
2018-06-07T09:03:03.471Z,1002.63
2018-06-07T09:04:03.480Z,1002.66
2018-06-07T09:05:03.540Z,1002.63
2018-06-07T09:06:03.485Z,1002.53
2018-06-07T09:07:03.513Z,1002.59
2018-06-07T09:08:03.533Z,1002.60
2018-06-07T09:09:03.504Z,1002.58
2018-06-07T09:10:03.491Z,1002.60
2018-06-07T09:11:03.503Z,1002.64
2018-06-07T09:12:03.514Z,1002.62
2018-06-07T09:13:03.811Z,1002.67
2018-06-07T09:14:03.519Z,1002.72
2018-06-07T09:15:03.522Z,1002.75
2018-06-07T09:16:03.532Z,1002.63
2018-06-07T09:17:04.187Z,1002.64
2018-06-07T09:18:03.904Z,1002.61
2018-06-07T09:19:04.357Z,1002.58
2018-06-07T09:20:04.005Z,1002.53
2018-06-07T09:21:03.571Z,1002.61
2018-06-07T09:22:03.600Z,1002.61
2018-06-07T09:23:03.575Z,1002.70
2018-06-07T09:24:03.594Z,1002.65
2018-06-07T09:25:03.699Z,1002.68
2018-06-07T09:26:03.642Z,1002.68
2018-06-07T09:27:03.606Z,1002.66
2018-06-07T09:28:03.605Z,1002.65
2018-06-07T09:29:03.614Z,1002.65
2018-06-07T09:30:03.715Z,1002.65
2018-06-07T09:31:03.622Z,1002.72
2018-06-07T09:32:03.653Z,1002.72
2018-06-07T09:33:03.649Z,1002.72
2018-06-07T09:34:03.646Z,1002.72
2018-06-07T09:35:03.678Z,1002.69
2018-06-07T09:36:03.663Z,1002.65
2018-06-07T09:37:03.668Z,1002.64
2018-06-07T09:38:03.710Z,1002.63
2018-06-07T09:39:03.683Z,1002.71
2018-06-07T09:40:03.690Z,1002.70
2018-06-07T09:41:03.706Z,1002.66
2018-06-07T09:42:03.696Z,1002.72
2018-06-07T09:43:03.848Z,1002.77
2018-06-07T09:44:03.870Z,1002.79
2018-06-07T09:45:03.742Z,1002.71
2018-06-07T09:46:03.739Z,1002.68
2018-06-07T09:47:03.764Z,1002.68
2018-06-07T09:48:03.768Z,1002.68
2018-06-07T09:49:04.322Z,1002.71
2018-06-07T09:50:03.777Z,1002.75
2018-06-07T09:51:03.781Z,1002.77
2018-06-07T09:52:04.771Z,1002.77
2018-06-07T09:53:04.046Z,1002.78
2018-06-07T09:54:04.441Z,1002.71
2018-06-07T09:55:03.823Z,1002.55
2018-06-07T09:56:03.856Z,1002.58
2018-06-07T09:57:03.839Z,1002.52
2018-06-07T09:58:04.008Z,1002.62
2018-06-07T09:59:03.849Z,1002.62
2018-06-07T10:00:03.933Z,1002.71
2018-06-07T10:01:03.875Z,1002.65
2018-06-07T10:02:03.878Z,1002.50
2018-06-07T10:03:03.888Z,1002.51
2018-06-07T10:04:03.897Z,1002.45
2018-06-07T10:05:03.901Z,1002.45
2018-06-07T10:06:03.923Z,1002.47
2018-06-07T10:07:04.156Z,1002.53
2018-06-07T10:08:03.913Z,1002.56
2018-06-07T10:09:03.942Z,1002.51
2018-06-07T10:10:04.693Z,1002.50
2018-06-07T10:11:03.943Z,1002.57
2018-06-07T10:12:03.982Z,1002.62
2018-06-07T10:13:03.961Z,1002.65
2018-06-07T10:14:03.959Z,1002.65
2018-06-07T10:15:03.990Z,1002.72
2018-06-07T10:16:04.019Z,1002.71
2018-06-07T10:17:04.322Z,1002.70
2018-06-07T10:18:03.986Z,1002.74
2018-06-07T10:19:06.703Z,1002.78
2018-06-07T10:20:04.009Z,1002.73
2018-06-07T10:21:04.014Z,1002.71
2018-06-07T10:22:05.131Z,1002.70
2018-06-07T10:23:04.036Z,1002.74
2018-06-07T10:24:04.051Z,1002.76
2018-06-07T10:25:04.047Z,1002.74
2018-06-07T10:26:04.124Z,1002.74
2018-06-07T10:27:04.069Z,1002.81
2018-06-07T10:28:04.081Z,1002.79
2018-06-07T10:29:04.084Z,1002.80
2018-06-07T10:30:04.708Z,1002.79
2018-06-07T10:31:04.148Z,1002.82
2018-06-07T10:32:04.120Z,1002.83
2018-06-07T10:33:04.127Z,1002.81
2018-06-07T10:34:04.132Z,1002.90
2018-06-07T10:35:04.178Z,1002.91
2018-06-07T10:36:04.172Z,1002.92
2018-06-07T10:37:04.161Z,1003.03
2018-06-07T10:38:04.176Z,1003.38
2018-06-07T10:39:04.228Z,1003.95
2018-06-07T10:40:04.185Z,1003.72
2018-06-07T10:41:04.267Z,1003.27
2018-06-07T10:42:04.211Z,1003.11
2018-06-07T10:43:04.214Z,1003.19
2018-06-07T10:44:04.243Z,1003.17
2018-06-07T10:45:04.241Z,1003.08
2018-06-07T10:46:04.287Z,1003.05
2018-06-07T10:47:07.128Z,1003.08
2018-06-07T10:48:04.284Z,1003.12
2018-06-07T10:49:04.326Z,1003.18
2018-06-07T10:50:04.371Z,1003.34
2018-06-07T10:51:04.323Z,1003.46
2018-06-07T10:52:04.352Z,1003.22
2018-06-07T10:53:04.347Z,1002.92
2018-06-07T10:54:04.410Z,1002.76
2018-06-07T10:55:04.369Z,1002.81
2018-06-07T10:56:04.375Z,1002.81
2018-06-07T10:59:26.583Z,1002.54
2018-06-07T11:00:26.462Z,1002.43
2018-06-07T11:01:26.483Z,1002.44
2018-06-07T11:02:26.480Z,1002.39
2018-06-07T11:03:26.495Z,1002.49
2018-06-07T11:04:26.517Z,1003.10
2018-06-07T11:05:26.534Z,1003.19
2018-06-07T11:06:26.797Z,1003.10
2018-06-07T11:07:26.549Z,1003.06
2018-06-07T11:08:26.552Z,1003.07
2018-06-07T11:09:26.560Z,1003.18
2018-06-07T11:10:26.729Z,1002.85
2018-06-07T11:11:26.582Z,1003.14
2018-06-07T11:12:26.588Z,1003.08
2018-06-07T11:13:26.608Z,1003.14
2018-06-07T11:14:26.619Z,1003.19
2018-06-07T11:15:26.632Z,1003.23
2018-06-07T11:16:26.673Z,1003.11
2018-06-07T11:17:26.644Z,1003.15
2018-06-07T11:18:26.724Z,1003.26
2018-06-07T11:19:26.706Z,1003.24
2018-06-07T11:20:26.695Z,1003.09
2018-06-07T11:21:26.828Z,1003.16
2018-06-07T11:22:26.712Z,1003.25
2018-06-07T11:24:25.778Z,1003.10
2018-06-07T11:24:26.724Z,1003.00
2018-06-07T11:25:26.747Z,1003.08
2018-06-07T11:26:26.753Z,1003.14
2018-06-07T11:27:26.792Z,1003.10
2018-06-07T11:28:27.792Z,1003.04
2018-06-07T11:29:26.935Z,1003.06
2018-06-07T11:30:26.814Z,1003.03
2018-06-07T11:31:26.850Z,1003.01
2018-06-07T11:32:26.832Z,1003.04
2018-06-07T11:33:26.871Z,1003.01
2018-06-07T11:34:26.879Z,1003.00
2018-06-07T11:35:26.874Z,1003.00
2018-06-07T11:36:26.884Z,1002.94
2018-06-07T11:37:26.891Z,1002.92
2018-06-07T11:38:26.895Z,1002.98
2018-06-07T11:39:26.944Z,1003.01
2018-06-07T11:40:26.915Z,1003.00
2018-06-07T11:41:27.300Z,1002.76
2018-06-07T11:42:26.957Z,1003.00
2018-06-07T11:43:26.969Z,1002.99
2018-06-07T11:44:27.035Z,1003.00
2018-06-07T11:45:26.998Z,1002.87
2018-06-07T11:46:51.506Z,1002.69
2018-06-07T11:47:27.026Z,1002.61
2018-06-07T11:48:27.025Z,1002.12
2018-06-07T11:49:27.040Z,1002.16
2018-06-07T11:50:27.115Z,1002.11
2018-06-07T11:51:27.068Z,1002.06
2018-06-07T11:52:27.082Z,1002.06
2018-06-07T11:53:27.088Z,1002.05
2018-06-07T11:54:27.146Z,1002.13
2018-06-07T11:55:27.113Z,1002.08
2018-06-07T11:56:27.247Z,1002.05
2018-06-07T11:57:27.137Z,1002.11
2018-06-07T11:58:27.152Z,1002.09
2018-06-07T11:59:27.231Z,1002.03
2018-06-07T12:02:12.199Z,1001.98
2018-06-07T12:03:12.159Z,1001.92
2018-06-07T12:04:20.732Z,1001.91
2018-06-07T12:05:12.186Z,1001.92
2018-06-07T12:06:12.177Z,1001.92
2018-06-07T12:07:12.192Z,1001.87
2018-06-07T12:08:12.230Z,1001.82
2018-06-07T12:09:12.342Z,1001.85
2018-06-07T12:10:12.214Z,1001.86
2018-06-07T12:11:12.228Z,1001.81
2018-06-07T12:12:12.439Z,1001.81
2018-06-07T12:13:12.229Z,1001.81
2018-06-07T12:14:12.256Z,1001.77
2018-06-07T12:15:12.260Z,1001.78
2018-06-07T12:16:12.253Z,1001.70
2018-06-07T12:17:12.264Z,1001.75
2018-06-07T12:18:12.513Z,1001.72
2018-06-07T12:19:12.270Z,1001.70
2018-06-07T12:20:14.083Z,1001.71
2018-06-07T12:21:12.277Z,1001.67
2018-06-07T12:22:12.291Z,1001.70
2018-06-07T12:23:13.007Z,1001.67
2018-06-07T12:24:12.330Z,1001.67
2018-06-07T12:25:12.888Z,1001.67
2018-06-07T12:26:12.308Z,1001.67
2018-06-07T12:27:12.363Z,1001.61
2018-06-07T12:28:12.309Z,1001.60
2018-06-07T12:29:12.296Z,1001.58
2018-06-07T12:30:12.342Z,1001.60
2018-06-07T12:31:12.313Z,1001.56
2018-06-07T12:32:12.326Z,1001.59
2018-06-07T12:33:12.309Z,1001.59
2018-06-07T12:34:12.364Z,1001.54
2018-06-07T12:35:12.315Z,1001.57
2018-06-07T12:36:12.495Z,1001.54
2018-06-07T12:37:12.332Z,1001.53
2018-06-07T12:38:12.338Z,1001.49
2018-06-07T12:39:12.317Z,1001.46
2018-06-07T12:40:12.491Z,1001.50
2018-06-07T12:41:12.323Z,1001.47
2018-06-07T12:42:12.362Z,1001.48
2018-06-07T12:43:12.331Z,1001.51
2018-06-07T12:44:12.331Z,1001.48
2018-06-07T12:45:12.331Z,1001.46
2018-06-07T12:46:12.401Z,1001.48
2018-06-07T12:47:12.905Z,1001.48
2018-06-07T12:48:12.333Z,1001.47
2018-06-07T12:49:12.348Z,1001.45
2018-06-07T12:50:12.338Z,1001.44
2018-06-07T12:51:12.354Z,1001.41
2018-06-07T12:52:12.349Z,1001.38
2018-06-07T12:53:12.380Z,1001.39
2018-06-07T12:54:12.347Z,1001.43
2018-06-07T12:55:12.360Z,1001.43
2018-06-07T12:56:12.423Z,1001.37
2018-06-07T12:57:21.903Z,1001.38
2018-06-07T12:58:12.355Z,1001.34
2018-06-07T12:59:12.363Z,1001.37
2018-06-07T13:00:12.387Z,1001.35
2018-06-07T13:01:12.356Z,1001.37
2018-06-07T13:02:12.676Z,1001.35
2018-06-07T13:03:12.588Z,1001.37
2018-06-07T13:05:39.545Z,1001.38
2018-06-07T13:05:46.956Z,1001.33
2018-06-07T13:06:40.049Z,1001.42
2018-06-07T13:07:40.059Z,1001.38
2018-06-07T13:08:40.061Z,1001.35
2018-06-07T13:09:40.048Z,1001.33
2018-06-07T13:10:40.978Z,1001.35
2018-06-07T13:11:40.058Z,1001.33
2018-06-07T13:12:40.050Z,1001.30
2018-06-07T13:13:40.179Z,1001.27
2018-06-07T13:14:47.863Z,1001.25
2018-06-07T13:15:40.056Z,1001.31
2018-06-07T13:16:40.050Z,1001.30
2018-06-07T13:17:40.040Z,1001.28
2018-06-07T13:18:40.064Z,1001.23
2018-06-07T13:19:42.074Z,1001.23
2018-06-07T13:20:40.051Z,1001.25
2018-06-07T13:37:22.684Z,1001.03
2018-06-07T13:38:22.470Z,1001.03
2018-06-07T13:39:22.501Z,1000.98
2018-06-07T13:40:22.528Z,1000.97
2018-06-07T13:41:22.493Z,1000.99
2018-06-07T13:42:22.518Z,1000.97
2018-06-07T13:43:22.630Z,1001.01
2018-06-07T13:44:22.493Z,1001.01
2018-06-07T13:45:22.620Z,1000.96
2018-06-07T13:46:22.495Z,1000.91
2018-06-07T13:47:22.488Z,1000.93
2018-06-07T13:48:23.833Z,1000.92
2018-06-07T13:49:31.646Z,1000.98
2018-06-07T13:50:22.500Z,1000.97
2018-06-07T13:51:22.508Z,1000.99
2018-06-07T13:52:22.494Z,1001.00
2018-06-07T13:53:22.478Z,1001.03
2018-06-07T13:54:22.516Z,1001.01
2018-06-07T13:55:22.525Z,1001.04
2018-06-07T13:56:22.514Z,1001.03
2018-06-07T13:57:22.493Z,1001.05
2018-06-07T13:58:22.496Z,1001.06
2018-06-07T13:59:22.511Z,1001.01
2018-06-07T14:00:22.538Z,1000.99
2018-06-07T14:01:22.495Z,1001.01
2018-06-07T14:02:22.573Z,1001.02
2018-06-07T14:03:22.491Z,1001.04
2018-06-07T14:04:22.513Z,1001.03
2018-06-07T14:05:22.486Z,1001.03
2018-06-07T14:06:22.495Z,1001.03
2018-06-07T14:07:22.495Z,1001.05
2018-06-07T14:08:22.489Z,1001.05
2018-06-07T14:09:22.641Z,1001.08
2018-06-07T14:10:22.480Z,1001.09
2018-06-07T14:11:22.492Z,1001.12
2018-06-07T14:12:22.541Z,1001.10
2018-06-07T14:13:22.494Z,1001.09
2018-06-07T14:14:22.486Z,1001.09
2018-06-07T14:19:59.383Z,1001.08
2018-06-07T14:20:59.041Z,1001.15
2018-06-07T14:21:59.033Z,1001.30
2018-06-07T14:22:59.043Z,1001.28
2018-06-07T14:23:59.051Z,1001.10
2018-06-07T14:24:59.068Z,1001.03
2018-06-07T14:25:59.040Z,1001.05
2018-06-07T14:26:59.139Z,1001.04
2018-06-07T14:27:59.110Z,1001.06
2018-06-07T14:28:59.082Z,1001.00
2018-06-07T14:29:59.055Z,1000.98
2018-06-07T14:30:59.127Z,1000.98
2018-06-07T14:31:59.107Z,1001.00
2018-06-07T14:32:59.044Z,1000.96
2018-06-07T14:33:59.053Z,1000.95
2018-06-07T14:34:59.094Z,1000.92
2018-06-07T14:35:59.102Z,1000.93
2018-06-07T14:44:31.749Z,1000.85
2018-06-07T14:45:25.075Z,1000.83
2018-06-07T14:46:25.049Z,1000.81
2018-06-07T14:47:25.015Z,1000.83
2018-06-07T14:48:25.035Z,1000.87
2018-06-07T14:49:25.169Z,1000.87
2018-06-07T14:50:25.040Z,1000.82
2018-06-07T14:51:25.031Z,1000.77
2018-06-07T14:52:25.023Z,1000.75
2018-06-07T14:53:25.017Z,1000.76
2018-06-07T14:54:25.027Z,1000.72
2018-06-07T14:55:25.086Z,1000.72
2018-06-07T14:56:25.041Z,1000.73
2018-06-07T14:57:25.025Z,1000.72
2018-06-07T14:58:25.055Z,1000.68
2018-06-07T14:59:25.040Z,1000.68
2018-06-07T15:00:25.180Z,1000.65
2018-06-07T15:01:25.023Z,1000.64
2018-06-07T15:02:25.367Z,1000.61
2018-06-07T15:03:25.029Z,1000.70
2018-06-07T15:04:25.044Z,1000.64
2018-06-07T15:05:25.013Z,1000.59
2018-06-07T15:07:53.303Z,1000.58
2018-06-07T15:08:20.844Z,1000.56
2018-06-07T15:08:53.823Z,1000.62
2018-06-07T15:09:53.828Z,1000.61
2018-06-07T15:10:53.830Z,1000.74
2018-06-07T15:11:53.848Z,1000.78
2018-06-07T15:12:53.870Z,1000.71
2018-06-07T15:13:53.816Z,1000.66
2018-06-07T15:14:53.836Z,1000.65
2018-06-07T15:15:53.853Z,1000.68
2018-06-07T15:16:53.846Z,1000.84
2018-06-07T15:17:55.821Z,1000.94
2018-06-07T15:18:53.870Z,1000.75
2018-06-07T15:19:53.850Z,1000.69
2018-06-07T15:20:53.897Z,1000.71
2018-06-07T15:21:53.984Z,1000.77
2018-06-07T15:22:53.832Z,1000.74
2018-06-07T15:23:53.838Z,1000.77
2018-06-07T15:24:53.906Z,1000.68
2018-06-07T15:25:53.831Z,1000.68
2018-06-07T15:26:53.834Z,1000.64
2018-06-07T15:27:53.911Z,1000.67
2018-06-07T15:28:54.544Z,1000.63
2018-06-07T15:29:54.914Z,1000.62
2018-06-07T15:30:53.848Z,1000.64
2018-06-07T15:31:53.850Z,1000.69
2018-06-07T15:32:54.842Z,1000.84
2018-06-07T15:33:53.873Z,1000.91
2018-06-07T15:34:53.897Z,1000.82
2018-06-07T15:35:53.922Z,1000.67
2018-06-07T15:36:54.857Z,1000.69
2018-06-07T15:37:53.895Z,1000.71
2018-06-07T15:38:53.835Z,1000.70
2018-06-07T15:39:53.852Z,1000.69
2018-06-07T15:40:53.982Z,1000.73
2018-06-07T15:41:53.850Z,1000.72
2018-06-07T15:42:53.849Z,1000.71
2018-06-07T15:43:53.840Z,1000.90
2018-06-07T15:44:53.908Z,1000.85
2018-06-07T15:45:53.900Z,1000.74
2018-06-07T15:46:53.864Z,1000.72
2018-06-07T15:47:53.845Z,1000.73
2018-06-07T15:48:53.875Z,1000.70
2018-06-07T15:49:53.847Z,1000.76
2018-06-07T15:50:53.857Z,1000.74
2018-06-07T15:51:53.883Z,1000.72
2018-06-07T15:52:53.850Z,1000.74
2018-06-07T15:53:53.845Z,1000.75
2018-06-07T15:54:53.853Z,1000.71
2018-06-07T15:55:53.850Z,1000.72
2018-06-07T15:56:54.363Z,1000.68
2018-06-07T15:57:53.850Z,1000.67
2018-06-07T15:58:53.849Z,1000.64
2018-06-07T15:59:53.897Z,1000.64
2018-06-07T16:00:53.852Z,1000.59
2018-06-07T16:01:53.946Z,1000.60
2018-06-07T16:02:53.849Z,1000.61
2018-06-07T16:03:53.852Z,1000.56
2018-06-07T16:04:53.877Z,1000.57
2018-06-07T16:05:53.853Z,1000.59
2018-06-07T16:06:53.849Z,1000.58
2018-06-07T16:07:53.906Z,1000.58
2018-06-07T16:08:53.870Z,1000.53
2018-06-07T16:09:53.850Z,1000.55
2018-06-07T16:10:53.853Z,1000.56
2018-06-07T16:11:53.851Z,1000.57
2018-06-07T16:12:53.856Z,1000.51
2018-06-07T16:13:54.349Z,1000.54
2018-06-07T16:14:53.885Z,1000.52
2018-06-07T16:15:53.849Z,1000.53
2018-06-07T16:16:53.858Z,1000.53
2018-06-07T16:17:53.854Z,1000.51
2018-06-07T16:18:53.890Z,1000.53
2018-06-07T16:19:53.884Z,1000.54
2018-06-07T16:20:53.854Z,1000.58
2018-06-07T16:21:53.852Z,1000.57
2018-06-07T16:22:53.858Z,1000.57
2018-06-07T16:23:53.852Z,1000.60
2018-06-07T16:24:53.889Z,1000.57
2018-06-07T16:25:53.855Z,1000.56
2018-06-07T16:26:54.566Z,1000.55
2018-06-07T16:27:53.853Z,1000.54
2018-06-07T16:28:53.886Z,1000.53
2018-06-07T16:31:00.185Z,1000.52
2018-06-07T16:33:57.239Z,1000.52
2018-06-07T16:34:57.194Z,1000.51
2018-06-07T16:35:57.206Z,1000.53
2018-06-07T16:36:57.217Z,1000.51
2018-06-07T16:37:57.201Z,1000.54
2018-06-07T16:38:57.187Z,1000.53
2018-06-07T16:39:57.183Z,1000.54
2018-06-07T17:54:40.136Z,1000.23
2018-06-07T17:55:12.993Z,1000.23
2018-06-07T17:56:13.005Z,1000.23
2018-06-07T17:57:12.983Z,1000.26
